createdAt,value
2019-03-05T00:02:02.398Z,2.27
2019-03-05T00:04:31.955Z,1.80
2019-03-05T00:07:01.662Z,2.33
2019-03-05T00:09:30.884Z,2.00
2019-03-05T00:12:00.467Z,1.90
2019-03-05T00:14:29.762Z,2.10
2019-03-05T00:16:59.427Z,2.57
2019-03-05T00:19:30.108Z,1.97
2019-03-05T00:21:59.413Z,1.70
2019-03-05T00:24:57.492Z,2.07
2019-03-05T00:27:27.980Z,2.10
2019-03-05T00:30:36.724Z,2.23
2019-03-05T00:33:34.013Z,2.20
2019-03-05T00:36:11.139Z,2.30
2019-03-05T00:39:11.388Z,1.90
2019-03-05T00:41:56.799Z,2.23
2019-03-05T00:44:40.333Z,2.27
2019-03-05T00:47:40.577Z,2.27
2019-03-05T00:50:47.674Z,2.00
2019-03-05T00:53:28.207Z,2.10
2019-03-05T00:56:35.198Z,2.30
2019-03-05T00:59:17.463Z,2.40
2019-03-05T01:02:13.599Z,2.20
2019-03-05T01:05:04.898Z,2.43
2019-03-05T01:07:34.792Z,2.10
2019-03-05T01:10:05.691Z,1.83
2019-03-05T01:12:35.518Z,2.10
2019-03-05T01:15:06.250Z,2.23
2019-03-05T01:17:35.987Z,1.87
2019-03-05T01:20:06.331Z,2.53
2019-03-05T01:22:36.083Z,2.50
2019-03-05T01:25:06.733Z,2.40
2019-03-05T01:27:36.056Z,2.10
2019-03-05T01:30:06.666Z,2.17
2019-03-05T01:32:42.250Z,2.43
2019-03-05T01:35:23.998Z,2.47
2019-03-05T01:37:53.657Z,2.57
2019-03-05T01:40:48.574Z,2.40
2019-03-05T01:43:18.219Z,2.67
2019-03-05T01:45:48.031Z,2.63
2019-03-05T01:48:17.795Z,2.50
2019-03-05T01:50:47.646Z,3.10
2019-03-05T01:53:16.896Z,2.80
2019-03-05T01:55:46.095Z,3.40
2019-03-05T01:58:15.806Z,3.10
2019-03-05T02:00:46.186Z,3.13
2019-03-05T02:03:15.934Z,3.70
2019-03-05T02:05:45.771Z,4.30
2019-03-05T02:08:15.498Z,3.73
2019-03-05T02:10:45.312Z,4.30
2019-03-05T02:13:14.639Z,4.33
2019-03-05T02:15:44.245Z,4.40
2019-03-05T02:18:17.230Z,4.67
2019-03-05T02:20:46.939Z,4.30
2019-03-05T02:23:33.180Z,4.23
2019-03-05T02:26:13.292Z,4.70
2019-03-05T02:28:59.524Z,5.20
2019-03-05T02:32:07.029Z,4.67
2019-03-05T02:34:58.008Z,4.73
2019-03-05T02:37:32.019Z,5.00
2019-03-05T02:40:24.283Z,4.67
2019-03-05T02:43:01.008Z,5.10
2019-03-05T02:46:01.765Z,5.40
2019-03-05T02:49:11.959Z,5.03
2019-03-05T02:51:47.641Z,5.53
2019-03-05T02:54:29.940Z,5.80
2019-03-05T02:57:10.937Z,5.50
2019-03-05T02:59:40.308Z,5.50
2019-03-05T03:02:27.978Z,5.97
2019-03-05T03:05:15.531Z,5.67
2019-03-05T03:07:44.812Z,6.00
2019-03-05T03:10:17.050Z,6.03
2019-03-05T03:12:46.914Z,5.87
2019-03-05T03:15:17.897Z,6.20
2019-03-05T03:17:48.639Z,6.83
2019-03-05T03:20:19.846Z,6.53
2019-03-05T03:22:50.798Z,6.53
2019-03-05T03:25:24.219Z,6.70
2019-03-05T03:27:54.229Z,6.63
2019-03-05T03:30:25.515Z,6.60
2019-03-05T03:32:54.905Z,7.43
2019-03-05T03:35:24.754Z,7.20
2019-03-05T03:37:54.486Z,8.10
2019-03-05T03:40:24.809Z,7.43
2019-03-05T03:42:55.077Z,7.97
2019-03-05T03:45:26.089Z,7.30
2019-03-05T03:47:55.908Z,8.20
2019-03-05T03:50:26.089Z,7.70
2019-03-05T03:52:55.430Z,8.07
2019-03-05T03:55:25.314Z,7.87
2019-03-05T03:57:54.555Z,7.90
2019-03-05T04:00:25.381Z,8.97
2019-03-05T04:02:55.785Z,8.27
2019-03-05T04:05:25.585Z,8.17
2019-03-05T04:07:55.345Z,8.27
2019-03-05T04:10:25.109Z,8.03
2019-03-05T04:12:54.925Z,7.70
2019-03-05T04:15:24.700Z,7.83
2019-03-05T04:17:54.441Z,8.30
2019-03-05T04:20:27.325Z,7.83
2019-03-05T04:22:57.029Z,7.60
2019-03-05T04:25:26.748Z,8.00
2019-03-05T04:27:56.091Z,7.97
2019-03-05T04:30:25.246Z,7.90
2019-03-05T04:32:54.427Z,8.60
2019-03-05T04:35:23.997Z,7.83
2019-03-05T04:37:53.243Z,8.17
2019-03-05T04:40:22.849Z,7.83
2019-03-05T04:42:52.596Z,8.17
2019-03-05T04:45:29.507Z,8.10
2019-03-05T04:47:58.739Z,7.87
2019-03-05T04:50:47.408Z,8.13
2019-03-05T04:53:16.641Z,7.60
2019-03-05T04:55:45.784Z,8.27
2019-03-05T04:58:15.414Z,7.70
2019-03-05T05:00:45.185Z,7.37
2019-03-05T05:03:15.042Z,7.87
2019-03-05T05:05:44.361Z,7.73
2019-03-05T05:08:13.542Z,7.53
2019-03-05T05:10:44.207Z,8.30
2019-03-05T05:13:13.890Z,8.17
2019-03-05T05:15:43.666Z,8.43
2019-03-05T05:18:13.374Z,8.17
2019-03-05T05:20:43.063Z,7.77
2019-03-05T05:23:12.964Z,8.30
2019-03-05T05:25:42.710Z,8.30
2019-03-05T05:28:12.035Z,7.90
2019-03-05T05:30:41.165Z,8.03
2019-03-05T05:33:10.331Z,7.77
2019-03-05T05:35:40.013Z,7.70
2019-03-05T05:38:09.622Z,7.53
2019-03-05T05:40:41.990Z,7.23
2019-03-05T05:43:18.888Z,6.87
2019-03-05T05:45:50.607Z,7.00
2019-03-05T05:48:20.540Z,6.90
2019-03-05T05:50:50.273Z,6.77
2019-03-05T05:53:20.115Z,7.03
2019-03-05T05:55:49.758Z,6.70
2019-03-05T05:58:19.447Z,6.93
2019-03-05T06:00:51.567Z,6.97
2019-03-05T06:03:21.391Z,6.67
2019-03-05T06:05:50.744Z,6.13
2019-03-05T06:08:21.413Z,6.37
2019-03-05T06:10:52.941Z,7.07
2019-03-05T06:13:22.590Z,6.73
2019-03-05T06:15:54.363Z,6.70
2019-03-05T06:18:24.026Z,6.63
2019-03-05T06:20:53.679Z,7.23
2019-03-05T06:23:23.020Z,6.97
2019-03-05T06:25:52.323Z,6.30
2019-03-05T06:28:21.531Z,8.33
2019-03-05T06:30:50.661Z,6.80
2019-03-05T06:33:20.272Z,8.33
2019-03-05T06:35:49.718Z,6.70
2019-03-05T06:38:19.333Z,6.30
2019-03-05T06:40:49.073Z,6.33
2019-03-05T06:43:18.794Z,5.93
2019-03-05T06:45:48.477Z,5.93
2019-03-05T06:48:18.173Z,6.07
2019-03-05T06:50:47.821Z,6.20
2019-03-05T06:53:17.634Z,6.03
2019-03-05T06:55:47.298Z,5.93
2019-03-05T06:58:32.111Z,6.50
2019-03-05T07:01:01.279Z,6.60
2019-03-05T07:03:30.396Z,6.53
2019-03-05T07:06:17.707Z,6.90
2019-03-05T07:09:14.582Z,7.23
2019-03-05T07:12:03.463Z,6.80
2019-03-05T07:14:55.320Z,6.70
2019-03-05T07:17:30.800Z,6.90
2019-03-05T07:20:23.039Z,6.90
2019-03-05T07:24:00.834Z,6.47
2019-03-05T07:26:31.241Z,5.97
2019-03-05T07:29:00.976Z,5.90
2019-03-05T07:31:31.596Z,6.07
2019-03-05T07:34:24.796Z,6.23
2019-03-05T07:36:54.417Z,5.83
2019-03-05T07:39:23.859Z,6.33
2019-03-05T07:41:53.606Z,5.83
2019-03-05T07:44:23.396Z,5.33
2019-03-05T07:46:52.791Z,4.87
2019-03-05T07:49:22.349Z,5.27
2019-03-05T07:51:52.262Z,4.83
2019-03-05T07:54:22.089Z,5.37
2019-03-05T07:56:51.823Z,4.73
2019-03-05T07:59:21.494Z,5.50
2019-03-05T08:01:51.145Z,5.33
2019-03-05T08:04:20.464Z,5.47
2019-03-05T08:06:50.408Z,5.90
2019-03-05T08:09:39.217Z,5.33
2019-03-05T08:12:13.966Z,5.83
2019-03-05T08:14:59.523Z,5.60
2019-03-05T08:17:29.306Z,5.63
2019-03-05T08:20:00.751Z,7.90
2019-03-05T08:22:33.139Z,5.67
2019-03-05T08:25:02.526Z,6.73
2019-03-05T08:27:31.837Z,5.67
2019-03-05T08:30:01.139Z,5.60
2019-03-05T08:32:30.360Z,4.90
2019-03-05T08:34:59.911Z,5.70
2019-03-05T08:37:29.313Z,5.33
2019-03-05T08:39:59.458Z,5.20
2019-03-05T08:42:29.622Z,4.57
2019-03-05T08:44:59.245Z,5.10
2019-03-05T08:47:28.995Z,4.93
2019-03-05T08:49:58.642Z,4.27
2019-03-05T08:52:27.951Z,4.10
2019-03-05T08:54:57.475Z,3.57
2019-03-05T08:57:27.235Z,3.43
2019-03-05T08:59:56.959Z,3.80
2019-03-05T09:02:26.398Z,3.60
2019-03-05T09:04:56.102Z,3.40
2019-03-05T09:07:25.805Z,3.43
2019-03-05T09:09:55.589Z,3.87
2019-03-05T09:12:25.527Z,3.67
2019-03-05T09:14:55.595Z,2.83
2019-03-05T09:17:25.149Z,3.10
2019-03-05T09:19:54.817Z,2.87
2019-03-05T09:22:24.588Z,2.57
2019-03-05T09:24:53.849Z,2.40
2019-03-05T09:27:23.478Z,2.33
2019-03-05T09:29:53.169Z,2.30
2019-03-05T09:32:23.983Z,2.60
2019-03-05T09:34:53.183Z,2.30
2019-03-05T09:37:22.306Z,2.70
2019-03-05T09:39:51.455Z,2.80
2019-03-05T09:42:20.574Z,2.40
2019-03-05T09:44:49.786Z,2.80
2019-03-05T09:47:18.972Z,2.90
2019-03-05T09:49:48.567Z,2.90
2019-03-05T09:52:41.008Z,2.43
2019-03-05T09:55:13.153Z,2.50
2019-03-05T09:57:42.395Z,2.97
2019-03-05T10:00:15.130Z,2.33
2019-03-05T10:02:46.062Z,2.70
2019-03-05T10:05:16.115Z,2.63
2019-03-05T10:07:45.440Z,2.43
2019-03-05T10:10:18.140Z,2.40
2019-03-05T10:12:48.055Z,2.30
2019-03-05T10:15:19.151Z,2.73
2019-03-05T10:17:50.192Z,2.17
2019-03-05T10:20:21.183Z,2.70
2019-03-05T10:25:17.665Z,2.90
2019-03-05T10:27:47.611Z,3.03
2019-03-05T10:30:24.883Z,2.80
2019-03-05T10:32:49.460Z,2.57
2019-03-05T10:35:20.654Z,2.47
2019-03-05T10:37:52.568Z,2.73
2019-03-05T10:40:22.779Z,2.90
2019-03-05T10:42:52.453Z,2.67
2019-03-05T10:45:22.162Z,2.60
2019-03-05T10:47:52.639Z,2.40
2019-03-05T10:50:24.956Z,2.57
2019-03-05T10:52:54.492Z,2.53
2019-03-05T10:55:26.443Z,2.30
2019-03-05T10:57:55.592Z,3.13
2019-03-05T11:00:30.384Z,3.00
2019-03-05T11:03:00.575Z,3.00
2019-03-05T11:05:31.482Z,3.10
2019-03-05T11:08:00.774Z,3.10
2019-03-05T11:10:31.601Z,3.00
2019-03-05T11:13:01.802Z,2.63
2019-03-05T11:15:31.986Z,2.60
2019-03-05T11:18:01.813Z,2.87
2019-03-05T11:20:36.392Z,2.53
2019-03-05T11:23:06.490Z,2.60
2019-03-05T11:25:35.826Z,2.53
2019-03-05T11:28:05.492Z,2.40
2019-03-05T11:30:37.794Z,2.73
2019-03-05T11:33:07.793Z,2.70
2019-03-05T11:35:37.870Z,2.93
2019-03-05T11:38:08.262Z,3.00
2019-03-05T11:40:39.146Z,3.07
2019-03-05T11:43:16.866Z,3.30
2019-03-05T11:45:46.228Z,2.83
2019-03-05T11:48:16.275Z,3.50
2019-03-05T11:50:46.272Z,3.23
2019-03-05T11:53:16.016Z,3.60
2019-03-05T11:55:45.560Z,3.30
2019-03-05T12:02:51.999Z,3.13
2019-03-05T12:04:55.157Z,3.23
2019-03-05T12:07:25.064Z,2.70
2019-03-05T12:09:55.009Z,2.90
2019-03-05T12:12:24.233Z,2.70
2019-03-05T12:14:53.619Z,2.90
2019-03-05T12:17:22.901Z,2.67
2019-03-05T12:19:52.611Z,2.50
2019-03-05T12:22:22.288Z,22.13
2019-03-05T12:24:52.307Z,3.40
2019-03-05T12:27:24.368Z,2.87
2019-03-05T12:29:53.520Z,2.80
2019-03-05T12:32:23.347Z,2.43
2019-03-05T12:34:52.654Z,2.60
2019-03-05T12:37:23.306Z,2.60
2019-03-05T12:39:53.359Z,2.50
2019-03-05T12:42:23.525Z,2.40
2019-03-05T12:44:53.513Z,2.40
2019-03-05T12:47:24.957Z,2.60
2019-03-05T12:49:54.565Z,2.20
2019-03-05T12:52:24.425Z,2.40
2019-03-05T12:54:56.209Z,2.10
2019-03-05T12:57:25.279Z,2.00
2019-03-05T12:59:56.158Z,2.00
2019-03-05T13:02:25.392Z,2.20
2019-03-05T13:04:54.701Z,3.10
2019-03-05T13:07:24.408Z,3.00
2019-03-05T13:09:56.940Z,2.90
2019-03-05T13:12:25.216Z,2.97
2019-03-05T13:14:54.821Z,2.00
2019-03-05T13:17:24.189Z,2.17
2019-03-05T13:19:53.901Z,1.70
2019-03-05T13:22:24.869Z,1.83
2019-03-05T13:24:55.130Z,2.10
2019-03-05T13:27:24.387Z,2.00
2019-03-05T13:29:53.789Z,2.10
2019-03-05T13:32:23.446Z,2.43
2019-03-05T13:34:52.821Z,3.67
2019-03-05T13:37:24.977Z,2.87
2019-03-05T13:39:58.096Z,2.00
2019-03-05T13:42:29.030Z,2.00
2019-03-05T13:44:57.763Z,2.30
2019-03-05T13:47:27.636Z,2.33
2019-03-05T13:50:14.796Z,2.17
2019-03-05T13:53:14.620Z,1.90
2019-03-05T13:55:55.662Z,2.10
2019-03-05T13:59:00.531Z,2.00
2019-03-05T14:01:30.029Z,1.90
2019-03-05T14:04:01.726Z,2.00
2019-03-05T14:07:08.023Z,1.80
2019-03-05T14:09:36.465Z,2.23
2019-03-05T14:12:06.615Z,3.83
2019-03-05T14:14:36.481Z,2.10
2019-03-05T14:17:27.145Z,1.80
2019-03-05T14:19:57.960Z,1.73
2019-03-05T14:23:18.928Z,1.90
2019-03-05T14:25:53.755Z,1.70
2019-03-05T14:28:23.904Z,2.10
2019-03-05T14:30:53.861Z,1.53
2019-03-05T14:43:04.220Z,1.40
2019-03-05T14:45:35.676Z,1.70
2019-03-05T14:48:05.967Z,2.60
2019-03-05T14:50:35.709Z,1.60
2019-03-05T14:53:04.909Z,1.80
2019-03-05T14:55:34.147Z,1.30
2019-03-05T14:58:04.157Z,1.70
2019-03-05T15:00:34.052Z,1.50
2019-03-05T15:03:04.373Z,1.30
2019-03-05T15:05:33.816Z,1.47
2019-03-05T15:08:03.538Z,1.30
2019-03-05T15:10:33.353Z,1.27
2019-03-05T15:13:14.914Z,1.90
2019-03-05T15:15:33.955Z,1.23
2019-03-05T15:18:03.606Z,1.50
2019-03-05T15:20:33.335Z,1.23
2019-03-05T15:23:03.131Z,1.30
2019-03-05T15:25:32.344Z,1.40
2019-03-05T15:28:01.990Z,1.30
2019-03-05T15:30:31.812Z,1.40
2019-03-05T15:33:01.603Z,1.50
2019-03-05T15:35:31.543Z,1.47
2019-03-05T15:38:00.776Z,1.33
2019-03-05T15:40:30.389Z,1.30
2019-03-05T15:43:00.405Z,1.23
2019-03-05T15:45:30.470Z,1.10
2019-03-05T15:48:00.216Z,1.27
2019-03-05T15:50:30.199Z,1.10
2019-03-05T15:53:00.126Z,3.50
2019-03-05T15:55:30.353Z,2.90
2019-03-05T15:57:59.515Z,1.20
2019-03-05T16:00:30.350Z,1.30
2019-03-05T16:03:00.226Z,1.30
2019-03-05T16:05:30.199Z,1.20
2019-03-05T16:08:01.202Z,1.47
2019-03-05T16:10:30.783Z,1.40
2019-03-05T16:13:00.468Z,1.70
2019-03-05T16:15:29.679Z,1.30
2019-03-05T16:18:01.306Z,1.20
2019-03-05T16:20:30.815Z,1.20
2019-03-05T16:23:00.431Z,1.20
2019-03-05T16:25:30.220Z,1.30
2019-03-05T16:28:02.157Z,1.57
2019-03-05T16:30:54.009Z,1.67
2019-03-05T16:33:42.826Z,2.90
2019-03-05T16:36:43.344Z,1.93
2019-03-05T16:39:27.285Z,1.97
2019-03-05T16:42:09.722Z,1.87
2019-03-05T16:44:56.780Z,1.80
2019-03-05T16:47:51.354Z,1.50
2019-03-05T16:50:28.865Z,2.30
2019-03-05T16:53:11.173Z,1.80
2019-03-05T16:56:06.446Z,1.70
2019-03-05T16:58:58.192Z,1.33
2019-03-05T17:01:36.025Z,1.57
2019-03-05T17:04:39.925Z,1.60
2019-03-05T17:07:19.433Z,1.40
2019-03-05T17:10:07.424Z,1.77
2019-03-05T17:12:40.141Z,1.70
2019-03-05T17:15:11.015Z,1.60
2019-03-05T17:17:40.961Z,1.60
2019-03-05T17:20:11.093Z,1.90
2019-03-05T17:22:40.989Z,4.27
2019-03-05T17:25:12.846Z,3.83
2019-03-05T17:27:42.942Z,1.90
2019-03-05T17:30:13.911Z,1.77
2019-03-05T17:32:43.862Z,1.80
2019-03-05T17:35:13.221Z,2.20
2019-03-05T17:37:42.604Z,2.33
2019-03-05T17:40:12.579Z,2.20
2019-03-05T17:42:42.873Z,2.30
2019-03-05T17:45:16.523Z,2.20
2019-03-05T17:47:46.485Z,1.90
2019-03-05T17:50:16.427Z,2.20
2019-03-05T17:52:46.631Z,2.10
2019-03-05T17:55:23.877Z,2.30
2019-03-05T17:57:48.151Z,2.40
2019-03-05T18:00:26.911Z,2.30
2019-03-05T18:02:56.431Z,2.30
2019-03-05T18:05:29.551Z,2.50
2019-03-05T18:07:59.237Z,2.70
2019-03-05T18:10:30.368Z,2.33
2019-03-05T18:13:00.844Z,2.50
2019-03-05T18:15:30.829Z,2.80
2019-03-05T18:18:00.655Z,2.60
2019-03-05T18:20:31.203Z,3.40
2019-03-05T18:23:04.748Z,2.80
2019-03-05T18:25:35.565Z,2.23
2019-03-05T18:28:05.812Z,2.60
2019-03-05T18:30:35.785Z,2.47
2019-03-05T18:33:05.779Z,3.00
2019-03-05T18:35:35.203Z,2.60
2019-03-05T18:38:04.650Z,2.30
2019-03-05T18:40:34.417Z,2.83
2019-03-05T18:43:04.284Z,2.97
2019-03-05T18:45:33.879Z,3.20
2019-03-05T18:48:03.242Z,3.63
2019-03-05T18:50:32.521Z,3.20
2019-03-05T18:53:02.394Z,2.93
2019-03-05T18:55:32.637Z,2.67
2019-03-05T18:58:02.474Z,3.47
2019-03-05T19:00:32.283Z,3.50
2019-03-05T19:03:02.129Z,2.90
2019-03-05T19:05:31.939Z,2.80
2019-03-05T19:08:01.799Z,3.10
2019-03-05T19:10:31.263Z,2.80
2019-03-05T19:13:00.872Z,3.33
2019-03-05T19:15:31.094Z,3.00
2019-03-05T19:18:01.331Z,3.63
2019-03-05T19:20:31.356Z,3.90
2019-03-05T19:23:01.425Z,3.40
2019-03-05T19:25:30.853Z,3.37
2019-03-05T19:28:01.486Z,3.20
2019-03-05T19:30:33.265Z,3.40
2019-03-05T19:33:03.216Z,2.80
2019-03-05T19:35:32.617Z,2.83
2019-03-05T19:38:02.431Z,2.97
2019-03-05T19:40:34.070Z,2.97
2019-03-05T19:43:03.898Z,3.30
2019-03-05T19:45:33.792Z,2.93
2019-03-05T19:48:03.784Z,3.00
2019-03-05T19:50:33.806Z,3.37
2019-03-05T19:53:04.570Z,5.60
2019-03-05T19:55:33.976Z,3.10
2019-03-05T19:58:10.922Z,3.43
2019-03-05T20:00:46.091Z,2.50
2019-03-05T20:03:16.165Z,2.67
2019-03-05T20:05:46.129Z,2.87
2019-03-05T20:08:16.054Z,2.93
2019-03-05T20:10:46.018Z,3.23
2019-03-05T20:13:16.380Z,2.67
2019-03-05T20:15:46.282Z,2.60
2019-03-05T20:18:16.428Z,2.60
2019-03-05T20:20:46.387Z,2.43
2019-03-05T20:23:15.725Z,2.30
2019-03-05T20:25:45.457Z,3.43
2019-03-05T20:28:15.239Z,4.33
2019-03-05T20:30:44.971Z,4.93
2019-03-05T20:33:14.335Z,3.10
2019-03-05T20:35:44.248Z,2.90
2019-03-05T20:38:14.660Z,2.77
2019-03-05T20:40:44.489Z,2.90
2019-03-05T20:43:14.491Z,3.20
2019-03-05T20:45:44.329Z,2.80
2019-03-05T20:48:14.593Z,3.10
2019-03-05T20:50:44.638Z,2.47
2019-03-05T20:53:14.514Z,3.00
2019-03-05T20:55:43.875Z,2.57
2019-03-05T20:58:13.803Z,2.60
2019-03-05T21:00:43.926Z,2.80
2019-03-05T21:03:14.290Z,3.07
2019-03-05T21:05:43.998Z,2.37
2019-03-05T21:08:13.928Z,2.60
2019-03-05T21:10:43.858Z,2.53
2019-03-05T21:13:13.626Z,2.63
2019-03-05T21:15:43.354Z,2.37
2019-03-05T21:18:13.194Z,3.07
2019-03-05T21:20:42.912Z,2.53
2019-03-05T21:23:12.655Z,2.63
2019-03-05T21:25:42.065Z,2.83
2019-03-05T21:28:11.654Z,3.10
2019-03-05T21:30:41.393Z,2.90
2019-03-05T21:33:11.163Z,3.27
2019-03-05T21:35:41.181Z,3.03
2019-03-05T21:38:11.856Z,3.50
2019-03-05T21:40:41.526Z,2.80
2019-03-05T21:43:10.930Z,2.60
2019-03-05T21:45:41.790Z,2.97
2019-03-05T21:48:11.772Z,2.80
2019-03-05T21:50:41.467Z,2.83
2019-03-05T21:53:11.306Z,2.90
2019-03-05T21:55:41.207Z,2.80
2019-03-05T21:58:10.776Z,2.57
2019-03-05T22:00:40.050Z,2.83
2019-03-05T22:03:09.704Z,2.93
2019-03-05T22:05:39.485Z,2.93
2019-03-05T22:08:10.199Z,3.30
2019-03-05T22:10:39.436Z,3.40
2019-03-05T22:13:09.313Z,3.47
2019-03-05T22:15:39.131Z,3.40
2019-03-05T22:18:08.341Z,3.83
2019-03-05T22:20:38.018Z,3.43
2019-03-05T22:23:07.402Z,3.50
2019-03-05T22:25:37.122Z,3.53
2019-03-05T22:28:06.886Z,3.53
2019-03-05T22:30:36.453Z,4.00
2019-03-05T22:33:05.728Z,3.80
2019-03-05T22:35:35.111Z,3.73
2019-03-05T22:38:04.370Z,3.70
2019-03-05T22:40:33.650Z,3.50
2019-03-05T22:43:03.064Z,4.00
2019-03-05T22:45:33.047Z,3.77
2019-03-05T22:48:03.413Z,4.00
2019-03-05T22:50:33.178Z,3.90
2019-03-05T22:53:03.082Z,3.20
2019-03-05T22:55:32.934Z,3.63
2019-03-05T22:58:02.380Z,3.73
2019-03-05T23:01:00.680Z,3.87
2019-03-05T23:03:30.524Z,3.63
2019-03-05T23:06:02.380Z,3.50
2019-03-05T23:08:32.416Z,3.00
2019-03-05T23:11:02.633Z,3.50
2019-03-05T23:13:32.678Z,3.47
2019-03-05T23:16:02.833Z,3.07
2019-03-05T23:18:32.617Z,3.43
2019-03-05T23:21:02.481Z,3.43
2019-03-05T23:23:31.818Z,3.70
2019-03-05T23:26:01.663Z,3.57
2019-03-05T23:28:31.523Z,3.27
2019-03-05T23:31:01.290Z,3.37
2019-03-05T23:33:31.043Z,3.23
2019-03-05T23:36:00.558Z,3.23
2019-03-05T23:38:30.418Z,3.53
2019-03-05T23:41:00.087Z,4.00
2019-03-05T23:43:30.070Z,3.60
2019-03-05T23:45:59.891Z,3.63
2019-03-05T23:48:29.727Z,3.20
2019-03-05T23:50:59.642Z,3.50
2019-03-05T23:53:29.276Z,3.53
2019-03-05T23:55:58.576Z,3.67
2019-03-05T23:58:27.781Z,3.50
